createdAt,value
2019-02-25T00:00:20.248Z,99565.09
2019-02-25T00:02:48.519Z,99573.84
2019-02-25T00:05:16.801Z,99569.45
2019-02-25T00:07:45.078Z,99570.69
2019-02-25T00:10:13.471Z,99566.98
2019-02-25T00:12:41.711Z,99562.63
2019-02-25T00:15:11.609Z,99568.11
2019-02-25T00:17:40.599Z,99570.82
2019-02-25T00:20:12.606Z,99574.08
2019-02-25T00:22:40.996Z,99575.19
2019-02-25T00:25:10.883Z,99569.48
2019-02-25T00:27:39.173Z,99568.24
2019-02-25T00:30:12.275Z,99567.21
2019-02-25T00:32:40.615Z,99566.77
2019-02-25T00:35:08.899Z,99569.56
2019-02-25T00:37:37.219Z,99574.50
2019-02-25T00:40:07.588Z,99577.33
2019-02-25T00:42:35.849Z,99578.34
2019-02-25T00:45:08.811Z,99582.13
2019-02-25T00:47:37.162Z,99581.81
2019-02-25T00:50:11.799Z,99576.97
2019-02-25T00:52:40.086Z,99583.56
2019-02-25T00:55:09.183Z,99578.32
2019-02-25T00:57:39.095Z,99579.65
2019-02-25T01:00:10.583Z,99579.33
2019-02-25T01:02:38.848Z,99577.97
2019-02-25T01:05:07.686Z,99574.72
2019-02-25T01:07:35.975Z,99571.90
2019-02-25T01:10:07.218Z,99573.81
2019-02-25T01:12:35.492Z,99573.81
2019-02-25T01:15:04.565Z,99574.13
2019-02-25T01:17:32.826Z,99567.88
2019-02-25T01:20:01.161Z,99572.22
2019-02-25T01:22:29.446Z,99566.06
2019-02-25T01:24:57.894Z,99567.06
2019-02-25T01:27:26.170Z,99574.69
2019-02-25T01:29:54.486Z,99582.73
2019-02-25T01:32:22.831Z,99574.75
2019-02-25T01:34:51.118Z,99578.77
2019-02-25T01:37:19.409Z,99581.46
2019-02-25T01:39:47.886Z,99584.73
2019-02-25T01:42:16.233Z,99588.53
2019-02-25T01:44:44.603Z,99590.81
2019-02-25T01:47:12.896Z,99592.82
2019-02-25T01:49:41.216Z,99585.97
2019-02-25T01:52:09.551Z,99582.18
2019-02-25T01:54:37.927Z,99584.19
2019-02-25T01:57:06.246Z,99588.25
2019-02-25T01:59:34.619Z,98761.02
2019-02-25T02:02:02.934Z,99576.11
2019-02-25T02:04:31.259Z,99577.98
2019-02-25T02:06:59.569Z,99574.30
2019-02-25T02:09:27.984Z,99581.59
2019-02-25T02:11:56.259Z,99576.98
2019-02-25T02:14:24.564Z,99576.98
2019-02-25T02:16:52.831Z,99574.20
2019-02-25T02:19:21.282Z,99565.80
2019-02-25T02:21:49.563Z,99571.28
2019-02-25T02:24:17.859Z,99565.34
2019-02-25T02:26:46.115Z,99560.09
2019-02-25T02:29:14.471Z,99562.66
2019-02-25T02:31:42.783Z,99560.55
2019-02-25T02:34:11.084Z,99551.69
2019-02-25T02:36:39.367Z,99564.80
2019-02-25T02:39:07.723Z,99553.70
2019-02-25T02:42:12.904Z,99558.08
2019-02-25T02:44:42.410Z,99562.88
2019-02-25T02:47:28.745Z,99565.12
2019-02-25T02:49:59.591Z,99565.44
2019-02-25T02:52:28.059Z,99560.19
2019-02-25T02:55:06.165Z,99557.13
2019-02-25T02:57:34.455Z,99567.58
2019-02-25T03:00:02.783Z,99561.73
2019-02-25T03:02:31.084Z,99558.50
2019-02-25T03:04:59.338Z,99556.67
2019-02-25T03:07:27.675Z,99561.05
2019-02-25T03:09:56.114Z,99560.50
2019-02-25T03:12:24.372Z,99560.05
2019-02-25T03:14:52.696Z,99560.00
2019-02-25T03:17:20.938Z,99565.02
2019-02-25T03:19:49.259Z,99566.55
2019-02-25T03:22:17.572Z,99564.09
2019-02-25T03:24:45.934Z,99569.56
2019-02-25T03:27:14.229Z,99557.38
2019-02-25T03:29:42.526Z,99553.47
2019-02-25T03:32:10.845Z,99553.23
2019-02-25T03:34:39.140Z,99558.95
2019-02-25T03:37:07.450Z,99548.48
2019-02-25T03:39:35.722Z,99547.62
2019-02-25T03:42:04.047Z,99539.46
2019-02-25T03:44:32.373Z,99545.16
2019-02-25T03:47:00.653Z,99538.22
2019-02-25T03:49:28.964Z,99538.77
2019-02-25T03:51:57.253Z,99537.67
2019-02-25T03:54:25.525Z,99542.48
2019-02-25T03:56:53.883Z,99546.08
2019-02-25T03:59:22.205Z,99543.52
2019-02-25T04:01:50.528Z,99540.93
2019-02-25T04:04:18.847Z,99537.37
2019-02-25T04:06:47.127Z,99534.68
2019-02-25T04:09:15.478Z,99538.28
2019-02-25T04:11:43.872Z,99537.69
2019-02-25T04:14:12.189Z,99543.39
2019-02-25T04:16:40.478Z,99541.38
2019-02-25T04:19:08.774Z,99541.47
2019-02-25T04:21:37.043Z,99542.01
2019-02-25T04:24:05.328Z,99535.84
2019-02-25T04:26:33.669Z,99537.84
2019-02-25T04:29:01.958Z,99543.40
2019-02-25T04:31:30.321Z,99529.86
2019-02-25T04:33:58.689Z,99544.41
2019-02-25T04:36:27.001Z,99549.33
2019-02-25T04:39:05.152Z,99552.41
2019-02-25T04:41:33.446Z,99558.25
2019-02-25T04:44:01.726Z,99549.00
2019-02-25T04:46:29.999Z,99557.95
2019-02-25T04:48:58.291Z,99555.63
2019-02-25T04:51:26.637Z,99569.09
2019-02-25T04:53:54.892Z,99572.66
2019-02-25T04:56:25.309Z,99571.88
2019-02-25T04:58:53.174Z,99573.34
2019-02-25T05:01:21.433Z,99563.71
2019-02-25T05:03:49.736Z,99564.50
2019-02-25T05:06:17.986Z,99559.80
2019-02-25T05:08:46.247Z,99555.78
2019-02-25T05:11:14.515Z,99562.94
2019-02-25T05:13:42.866Z,99560.47
2019-02-25T05:16:11.132Z,99380.45
2019-02-25T05:18:39.403Z,99554.71
2019-02-25T05:21:07.686Z,99557.85
2019-02-25T05:23:35.964Z,99559.73
2019-02-25T05:26:04.247Z,99566.23
2019-02-25T05:28:32.522Z,99572.03
2019-02-25T05:31:00.792Z,99567.70
2019-02-25T05:33:29.040Z,99569.16
2019-02-25T05:35:57.327Z,99564.79
2019-02-25T05:38:25.596Z,99562.77
2019-02-25T05:40:53.864Z,99556.92
2019-02-25T05:43:22.202Z,99552.39
2019-02-25T05:45:50.474Z,99562.56
2019-02-25T05:48:18.786Z,99566.08
2019-02-25T05:50:47.080Z,99573.11
2019-02-25T05:53:15.382Z,99572.09
2019-02-25T05:55:43.663Z,99569.47
2019-02-25T05:58:12.007Z,99574.13
2019-02-25T06:00:40.283Z,99561.36
2019-02-25T06:03:08.625Z,99550.05
2019-02-25T06:05:36.905Z,99549.61
2019-02-25T06:08:05.201Z,99544.55
2019-02-25T06:10:33.464Z,99545.08
2019-02-25T06:13:01.736Z,99544.29
2019-02-25T06:15:30.078Z,99558.73
2019-02-25T06:17:58.387Z,99552.69
2019-02-25T06:20:26.662Z,99557.73
2019-02-25T06:22:54.947Z,99560.61
2019-02-25T06:25:23.233Z,99554.62
2019-02-25T06:27:51.522Z,99557.69
2019-02-25T06:30:21.981Z,99562.31
2019-02-25T06:32:50.248Z,99566.47
2019-02-25T06:35:18.620Z,99570.09
2019-02-25T06:37:46.893Z,99567.95
2019-02-25T06:40:20.059Z,99564.94
2019-02-25T06:42:48.377Z,99560.25
2019-02-25T06:45:22.549Z,99552.77
2019-02-25T06:47:50.811Z,99556.71
2019-02-25T06:50:19.102Z,99552.88
2019-02-25T06:52:47.378Z,98700.22
2019-02-25T06:55:16.799Z,99555.71
2019-02-25T06:57:45.157Z,99550.38
2019-02-25T07:00:17.903Z,99548.48
2019-02-25T07:02:46.202Z,99544.84
2019-02-25T07:05:27.854Z,99547.08
2019-02-25T07:08:14.339Z,99545.08
2019-02-25T07:11:00.443Z,99543.39
2019-02-25T07:13:36.372Z,99542.52
2019-02-25T07:16:21.607Z,99546.68
2019-02-25T07:19:07.954Z,99551.73
2019-02-25T07:21:53.132Z,99555.89
2019-02-25T07:24:28.977Z,99554.58
2019-02-25T07:27:01.754Z,99554.48
2019-02-25T07:29:37.554Z,99555.48
2019-02-25T07:32:13.047Z,99554.38
2019-02-25T07:35:00.735Z,99560.55
2019-02-25T07:37:45.257Z,99558.76
2019-02-25T07:40:15.289Z,99557.42
2019-02-25T07:43:03.570Z,99549.61
2019-02-25T07:45:42.320Z,99559.02
2019-02-25T07:48:18.292Z,99559.36
2019-02-25T07:50:53.972Z,99564.75
2019-02-25T07:53:23.918Z,99572.59
2019-02-25T07:56:02.270Z,99572.73
2019-02-25T07:58:31.216Z,99576.66
2019-02-25T08:01:06.970Z,99570.91
2019-02-25T08:03:36.965Z,99569.18
2019-02-25T08:06:18.687Z,99564.99
2019-02-25T08:08:51.163Z,99562.36
2019-02-25T08:11:39.127Z,99556.84
2019-02-25T08:14:09.045Z,99572.95
2019-02-25T08:16:46.587Z,99567.38
2019-02-25T08:19:16.519Z,99568.64
2019-02-25T08:21:55.285Z,99568.77
2019-02-25T08:24:30.530Z,99570.32
2019-02-25T08:26:56.834Z,99578.41
2019-02-25T08:29:29.712Z,99585.23
2019-02-25T08:31:59.654Z,99586.33
2019-02-25T08:34:35.081Z,99584.94
2019-02-25T08:37:26.235Z,99580.09
2019-02-25T08:40:30.861Z,99588.11
2019-02-25T08:43:11.816Z,99581.81
2019-02-25T08:45:57.564Z,99587.55
2019-02-25T08:48:36.548Z,99575.73
2019-02-25T08:51:04.910Z,99569.31
2019-02-25T08:53:33.160Z,99572.41
2019-02-25T08:56:01.437Z,99575.20
2019-02-25T08:58:29.695Z,99572.45
2019-02-25T09:00:57.953Z,99572.63
2019-02-25T09:03:26.208Z,99570.45
2019-02-25T09:05:54.495Z,99579.30
2019-02-25T09:08:22.766Z,99570.97
2019-02-25T09:10:51.018Z,99585.77
2019-02-25T09:13:19.275Z,99587.88
2019-02-25T09:15:47.579Z,99582.67
2019-02-25T09:18:15.793Z,99585.45
2019-02-25T09:20:44.053Z,99578.20
2019-02-25T09:23:12.310Z,99574.85
2019-02-25T09:25:40.594Z,99577.52
2019-02-25T09:28:08.849Z,99578.37
2019-02-25T09:30:37.104Z,99574.39
2019-02-25T09:33:05.408Z,99568.73
2019-02-25T09:35:33.624Z,99563.51
2019-02-25T09:38:01.956Z,99565.59
2019-02-25T09:40:30.216Z,99569.62
2019-02-25T09:42:58.476Z,99567.63
2019-02-25T09:45:26.755Z,99572.69
2019-02-25T09:47:55.015Z,99568.33
2019-02-25T09:50:23.697Z,99565.87
2019-02-25T09:52:51.977Z,99554.80
2019-02-25T09:55:20.243Z,99560.26
2019-02-25T09:57:48.581Z,99559.94
2019-02-25T10:00:23.146Z,99564.03
2019-02-25T10:02:51.400Z,99558.87
2019-02-25T10:05:19.667Z,99551.27
2019-02-25T10:07:47.918Z,99548.32
2019-02-25T10:10:18.450Z,99554.36
2019-02-25T10:12:46.709Z,99548.25
2019-02-25T10:15:26.121Z,99540.91
2019-02-25T10:17:54.402Z,99536.64
2019-02-25T10:20:22.662Z,99535.00
2019-02-25T10:22:50.922Z,99529.17
2019-02-25T10:25:19.218Z,99527.69
2019-02-25T10:27:49.422Z,99522.16
2019-02-25T10:30:18.123Z,99521.06
2019-02-25T10:32:46.372Z,99516.97
2019-02-25T10:35:18.031Z,99511.28
2019-02-25T10:37:46.295Z,99516.42
2019-02-25T10:40:15.380Z,99507.14
2019-02-25T10:42:44.897Z,99504.47
2019-02-25T10:45:24.869Z,99498.70
2019-02-25T10:47:58.296Z,99494.52
2019-02-25T10:50:23.136Z,99491.63
2019-02-25T10:52:51.388Z,99485.91
2019-02-25T10:55:32.109Z,99485.09
2019-02-25T10:58:02.020Z,99485.93
2019-02-25T11:00:30.367Z,99483.75
2019-02-25T11:02:58.620Z,99485.73
2019-02-25T11:05:29.942Z,99483.78
2019-02-25T11:07:56.947Z,99480.23
2019-02-25T11:10:29.279Z,99487.22
2019-02-25T11:12:58.177Z,99478.62
2019-02-25T11:15:28.301Z,99476.90
2019-02-25T11:17:56.577Z,99473.80
2019-02-25T11:20:24.831Z,99476.73
2019-02-25T11:22:53.090Z,99470.08
2019-02-25T11:25:23.135Z,99410.58
2019-02-25T11:27:51.346Z,99466.52
2019-02-25T11:30:21.548Z,99464.88
2019-02-25T11:32:51.185Z,99458.73
2019-02-25T11:35:19.572Z,99457.85
2019-02-25T11:37:49.575Z,99463.72
2019-02-25T11:40:17.973Z,99465.28
2019-02-25T11:42:46.243Z,99458.97
2019-02-25T11:45:18.346Z,99454.63
2019-02-25T11:47:46.616Z,99451.08
2019-02-25T11:50:16.125Z,99449.70
2019-02-25T11:52:44.377Z,99454.30
2019-02-25T11:55:14.403Z,99444.50
2019-02-25T11:57:42.711Z,99449.73
2019-02-25T12:00:20.168Z,99449.66
2019-02-25T12:02:48.464Z,99441.94
2019-02-25T12:05:17.857Z,99441.70
2019-02-25T12:07:46.101Z,99438.69
2019-02-25T12:10:15.511Z,99436.02
2019-02-25T12:12:43.757Z,99441.78
2019-02-25T12:15:17.038Z,99434.88
2019-02-25T12:17:45.304Z,99429.20
2019-02-25T12:20:14.351Z,99429.23
2019-02-25T12:22:42.613Z,99435.83
2019-02-25T12:25:16.062Z,99432.64
2019-02-25T12:27:44.320Z,99423.46
2019-02-25T12:30:18.202Z,99414.37
2019-02-25T12:32:46.458Z,99404.63
2019-02-25T12:35:14.719Z,99399.59
2019-02-25T12:37:43.000Z,99397.23
2019-02-25T12:40:13.216Z,99392.17
2019-02-25T12:42:41.500Z,99394.86
2019-02-25T12:45:11.577Z,99380.55
2019-02-25T12:47:39.822Z,99373.67
2019-02-25T12:50:10.622Z,99378.97
2019-02-25T12:52:38.884Z,99381.67
2019-02-25T12:55:09.881Z,99376.05
2019-02-25T12:57:38.166Z,99377.95
2019-02-25T13:00:18.276Z,99373.32
2019-02-25T13:02:46.538Z,99378.52
2019-02-25T13:05:22.457Z,99373.05
2019-02-25T13:07:50.703Z,99368.39
2019-02-25T13:10:19.196Z,99363.64
2019-02-25T13:12:47.458Z,99358.05
2019-02-25T13:15:20.027Z,99355.16
2019-02-25T13:17:48.321Z,99348.57
2019-02-25T13:20:16.590Z,99348.75
2019-02-25T13:22:44.928Z,99352.45
2019-02-25T13:25:21.774Z,99345.56
2019-02-25T13:27:51.829Z,99332.46
2019-02-25T13:30:20.067Z,99331.28
2019-02-25T13:32:48.328Z,99323.25
2019-02-25T13:35:16.576Z,99322.66
2019-02-25T13:37:45.067Z,99316.98
2019-02-25T13:40:15.631Z,99311.81
2019-02-25T13:42:44.117Z,99306.03
2019-02-25T13:45:16.689Z,99304.59
2019-02-25T13:47:45.005Z,99301.77
2019-02-25T13:50:14.725Z,99298.19
2019-02-25T13:52:48.552Z,99294.47
2019-02-25T13:55:13.639Z,99292.57
2019-02-25T13:57:41.916Z,99291.98
2019-02-25T14:00:18.602Z,99292.74
2019-02-25T14:02:47.015Z,99287.44
2019-02-25T14:05:15.480Z,99280.28
2019-02-25T14:07:43.829Z,99280.03
2019-02-25T14:10:14.192Z,99282.64
2019-02-25T14:12:42.505Z,99283.69
2019-02-25T14:15:17.183Z,99278.69
2019-02-25T14:17:45.531Z,99271.41
2019-02-25T14:20:16.754Z,99265.95
2019-02-25T14:22:45.090Z,99271.40
2019-02-25T14:25:16.183Z,99266.91
2019-02-25T14:27:45.480Z,99265.40
2019-02-25T14:30:16.920Z,99264.52
2019-02-25T14:32:45.211Z,99267.08
2019-02-25T14:35:13.579Z,99262.48
2019-02-25T14:37:41.926Z,99197.17
2019-02-25T14:40:16.702Z,99250.97
2019-02-25T14:42:46.885Z,99246.25
2019-02-25T14:45:14.725Z,99245.86
2019-02-25T14:47:44.557Z,99245.58
2019-02-25T14:50:19.637Z,99252.64
2019-02-25T14:52:48.100Z,99241.42
2019-02-25T14:55:16.358Z,99241.84
2019-02-25T14:57:44.823Z,99244.05
2019-02-25T15:00:26.808Z,99233.08
2019-02-25T15:02:54.819Z,99231.51
2019-02-25T15:05:24.219Z,99231.54
2019-02-25T15:07:53.366Z,99220.43
2019-02-25T15:10:26.624Z,99223.63
2019-02-25T15:12:56.497Z,99222.12
2019-02-25T15:15:23.160Z,99219.46
2019-02-25T15:17:52.753Z,99222.01
2019-02-25T15:20:23.341Z,99225.08
2019-02-25T15:22:51.987Z,99222.92
2019-02-25T15:25:20.787Z,99220.12
2019-02-25T15:27:49.219Z,99221.77
2019-02-25T15:30:21.107Z,99219.36
2019-02-25T15:32:55.761Z,99218.70
2019-02-25T15:35:20.548Z,99216.94
2019-02-25T15:37:50.384Z,99212.54
2019-02-25T15:40:21.012Z,99207.60
2019-02-25T15:43:00.883Z,99210.68
2019-02-25T15:45:31.076Z,99209.58
2019-02-25T15:48:00.887Z,99213.27
2019-02-25T15:50:29.184Z,99212.13
2019-02-25T15:53:00.761Z,99209.85
2019-02-25T15:55:27.714Z,99215.08
2019-02-25T15:57:56.046Z,99215.48
2019-02-25T16:00:27.278Z,99214.61
2019-02-25T16:02:56.144Z,99206.39
2019-02-25T16:05:27.427Z,99206.53
2019-02-25T16:07:58.009Z,99210.34
2019-02-25T16:10:27.288Z,99210.60
2019-02-25T16:12:57.658Z,99211.98
2019-02-25T16:15:26.000Z,99223.34
2019-02-25T16:17:54.297Z,99222.75
2019-02-25T16:20:26.072Z,99227.11
2019-02-25T16:22:56.333Z,99223.24
2019-02-25T16:25:27.139Z,99222.45
2019-02-25T16:27:55.534Z,99214.97
2019-02-25T16:30:25.809Z,99218.05
2019-02-25T16:32:53.813Z,99226.04
2019-02-25T16:35:22.077Z,99227.48
2019-02-25T16:37:50.728Z,99227.12
2019-02-25T16:40:24.453Z,99225.26
2019-02-25T16:42:50.759Z,99231.95
2019-02-25T16:45:20.233Z,99234.62
2019-02-25T16:47:48.524Z,99240.45
2019-02-25T16:50:18.541Z,99244.02
2019-02-25T16:52:47.838Z,99253.05
2019-02-25T16:55:22.713Z,99258.47
2019-02-25T16:57:51.762Z,99261.96
2019-02-25T17:00:29.367Z,99262.28
2019-02-25T17:02:59.252Z,99267.88
2019-02-25T17:05:26.041Z,99263.16
2019-02-25T17:07:56.083Z,99260.42
2019-02-25T17:10:27.096Z,99258.50
2019-02-25T17:12:55.627Z,99253.19
2019-02-25T17:15:26.329Z,99257.73
2019-02-25T17:17:54.071Z,99253.30
2019-02-25T17:20:22.923Z,99255.22
2019-02-25T17:22:51.358Z,99254.17
2019-02-25T17:25:19.880Z,99253.92
2019-02-25T17:27:48.139Z,99118.68
2019-02-25T17:30:24.059Z,99263.00
2019-02-25T17:32:52.537Z,99272.95
2019-02-25T17:35:23.568Z,99273.55
2019-02-25T17:37:53.414Z,99272.76
2019-02-25T17:40:21.532Z,99277.16
2019-02-25T17:42:51.721Z,99277.13
2019-02-25T17:45:29.352Z,99276.66
2019-02-25T17:47:58.336Z,99284.31
2019-02-25T17:50:27.041Z,99289.49
2019-02-25T17:52:55.299Z,99282.98
2019-02-25T17:55:29.371Z,99284.07
2019-02-25T17:57:59.197Z,99279.94
2019-02-25T18:00:39.302Z,99278.23
2019-02-25T18:03:07.206Z,99280.69
2019-02-25T18:05:36.373Z,99282.91
2019-02-25T18:08:07.631Z,99283.33
2019-02-25T18:10:35.788Z,99285.94
2019-02-25T18:13:06.741Z,99290.11
2019-02-25T18:15:34.119Z,99290.94
2019-02-25T18:18:02.384Z,99287.07
2019-02-25T18:20:30.642Z,99288.25
2019-02-25T18:22:59.175Z,99288.16
2019-02-25T18:25:27.461Z,99279.17
2019-02-25T18:27:55.789Z,99290.56
2019-02-25T18:30:30.264Z,99288.82
2019-02-25T18:33:00.989Z,99286.70
2019-02-25T18:35:28.956Z,99284.97
2019-02-25T18:37:58.625Z,99278.09
2019-02-25T18:40:27.894Z,99276.19
2019-02-25T18:42:58.011Z,99279.05
2019-02-25T18:45:26.146Z,99278.94
2019-02-25T18:47:54.423Z,99268.94
2019-02-25T18:50:24.047Z,99266.28
2019-02-25T18:52:54.633Z,99269.02
2019-02-25T18:55:25.439Z,99265.85
2019-02-25T18:57:54.859Z,99257.17
2019-02-25T19:00:28.422Z,99260.63
2019-02-25T19:02:58.302Z,99257.64
2019-02-25T19:05:27.664Z,99258.03
2019-02-25T19:07:57.667Z,99264.28
2019-02-25T19:10:26.873Z,99270.94
2019-02-25T19:12:56.371Z,99272.27
2019-02-25T19:15:25.175Z,99270.37
2019-02-25T19:17:54.404Z,99283.41
2019-02-25T19:20:22.781Z,99293.78
2019-02-25T19:22:51.038Z,99298.61
2019-02-25T19:25:20.798Z,99288.79
2019-02-25T19:27:50.055Z,99290.22
2019-02-25T19:30:19.829Z,99293.41
2019-02-25T19:32:49.563Z,99298.95
2019-02-25T19:35:17.866Z,99293.23
2019-02-25T19:37:46.783Z,99303.39
2019-02-25T19:40:24.418Z,99295.20
2019-02-25T19:42:54.202Z,99298.61
2019-02-25T19:45:22.663Z,99299.53
2019-02-25T19:47:51.000Z,99297.57
2019-02-25T19:50:21.081Z,99295.80
2019-02-25T19:52:49.355Z,99299.02
2019-02-25T19:55:20.245Z,99297.59
2019-02-25T19:57:47.604Z,99297.59
2019-02-25T20:00:22.377Z,99296.34
2019-02-25T20:02:50.468Z,99288.33
2019-02-25T20:05:19.761Z,99289.39
2019-02-25T20:07:48.889Z,99293.31
2019-02-25T20:10:17.315Z,99302.74
2019-02-25T20:12:45.617Z,99298.66
2019-02-25T20:15:21.245Z,99298.28
2019-02-25T20:17:50.654Z,99301.34
2019-02-25T20:20:19.404Z,99304.01
2019-02-25T20:22:47.658Z,99300.27
2019-02-25T20:25:18.820Z,99301.84
2019-02-25T20:27:46.665Z,99301.83
2019-02-25T20:30:19.633Z,99304.12
2019-02-25T20:32:48.769Z,99305.19
2019-02-25T20:35:22.242Z,99315.14
2019-02-25T20:37:52.888Z,99324.91
2019-02-25T20:40:21.820Z,99322.92
2019-02-25T20:42:51.201Z,99326.25
2019-02-25T20:45:26.199Z,99325.33
2019-02-25T20:47:57.185Z,99327.62
2019-02-25T20:50:26.138Z,99339.34
2019-02-25T20:52:56.003Z,99338.77
2019-02-25T20:55:24.994Z,99330.22
2019-02-25T20:57:55.258Z,99329.13
2019-02-25T21:00:25.115Z,99320.36
2019-02-25T21:02:53.407Z,99322.82
2019-02-25T21:05:22.795Z,99319.06
2019-02-25T21:07:53.366Z,99314.92
2019-02-25T21:10:22.734Z,99312.77
2019-02-25T21:12:52.984Z,99309.00
2019-02-25T21:15:21.844Z,99305.80
2019-02-25T21:17:51.965Z,99305.95
2019-02-25T21:20:21.494Z,99304.18
2019-02-25T21:22:52.468Z,99305.39
2019-02-25T21:25:24.417Z,99308.19
2019-02-25T21:27:50.516Z,99306.03
2019-02-25T21:30:19.907Z,99300.49
2019-02-25T21:32:50.150Z,99303.66
2019-02-25T21:35:19.460Z,99308.45
2019-02-25T21:37:50.020Z,99315.16
2019-02-25T21:40:22.721Z,99311.77
2019-02-25T21:42:53.884Z,99310.66
2019-02-25T21:45:24.494Z,99313.64
2019-02-25T21:47:54.204Z,99317.14
2019-02-25T21:50:26.261Z,99311.02
2019-02-25T21:52:52.733Z,99306.57
2019-02-25T21:55:23.173Z,99304.42
2019-02-25T21:57:54.362Z,99302.95
2019-02-25T22:00:27.011Z,99307.00
2019-02-25T22:02:56.389Z,99317.95
2019-02-25T22:05:24.877Z,99316.14
2019-02-25T22:07:55.376Z,99314.17
2019-02-25T22:10:23.240Z,99307.20
2019-02-25T22:12:51.519Z,99301.70
2019-02-25T22:15:22.124Z,99304.66
2019-02-25T22:17:53.039Z,99312.92
2019-02-25T22:20:22.539Z,99318.41
2019-02-25T22:22:54.550Z,99308.41
2019-02-25T22:25:21.408Z,99305.82
2019-02-25T22:27:49.684Z,99305.61
2019-02-25T22:30:18.189Z,99300.86
2019-02-25T22:32:46.628Z,99300.98
2019-02-25T22:35:15.258Z,99302.23
2019-02-25T22:37:46.737Z,99295.83
2019-02-25T22:40:17.242Z,99292.63
2019-02-25T22:42:48.015Z,98832.70
2019-02-25T22:45:18.860Z,99300.22
2019-02-25T22:47:47.565Z,99301.25
2019-02-25T22:50:15.832Z,99295.70
2019-02-25T22:52:44.101Z,99297.94
2019-02-25T22:55:15.318Z,99304.98
2019-02-25T22:57:45.382Z,99303.02
2019-02-25T23:00:22.783Z,99305.45
2019-02-25T23:02:52.849Z,99313.20
2019-02-25T23:05:23.261Z,99307.67
2019-02-25T23:07:52.309Z,99313.34
2019-02-25T23:10:21.869Z,99319.49
2019-02-25T23:12:51.405Z,99321.19
2019-02-25T23:15:20.453Z,99336.05
2019-02-25T23:17:49.712Z,99338.47
2019-02-25T23:20:17.993Z,99339.65
2019-02-25T23:22:46.258Z,99339.25
2019-02-25T23:25:14.595Z,99330.81
2019-02-25T23:27:42.929Z,99329.91
2019-02-25T23:30:12.827Z,99326.30
2019-02-25T23:32:41.125Z,99339.14
2019-02-25T23:35:11.858Z,99338.27
2019-02-25T23:37:39.456Z,99342.49
2019-02-25T23:40:12.012Z,99345.67
2019-02-25T23:42:41.866Z,99347.59
2019-02-25T23:45:15.526Z,99351.70
2019-02-25T23:47:43.995Z,99348.12
2019-02-25T23:50:13.947Z,99344.53
2019-02-25T23:52:42.208Z,99335.45
2019-02-25T23:55:14.354Z,99333.14
2019-02-25T23:57:41.623Z,99335.02
